Terminal Aerodrome Forecast
Issued by NWS Des Moines, IA

Home | Current Version | Previous Version | Text Only | Print | Product List | Glossary On
Versions: 1 2 3 4 5 6 7 8 9 10 11 12 13 14 15 16 17 18 19 20
000
FTUS43 KDMX 041135
TAFALO
TAF
KALO 041135Z 0412/0512 16012KT 1SM -SN OVC003
     FM041600 18011KT 5SM -SN OVC003
     FM041800 22008KT P6SM OVC007
     FM050000 24007KT P6SM SCT100
     FM050700 15004KT 5SM BR BKN010=

USA.gov is the U.S. government's official web portal to all federal, state and local government web resources and services.